sensor_id;sensor_type;location;lat;lon;timestamp;temperature;humidity
61386;DHT22;47256;18.904;-99.054;2023-07-16T00:00:20;31.30;76.90
61386;DHT22;47256;18.904;-99.054;2023-07-16T00:02:53;31.20;77.00
61386;DHT22;47256;18.904;-99.054;2023-07-16T00:05:22;31.20;78.10
61386;DHT22;47256;18.904;-99.054;2023-07-16T00:07:49;31.10;77.40
61386;DHT22;47256;18.904;-99.054;2023-07-16T00:10:17;31.10;80.40
61386;DHT22;47256;18.904;-99.054;2023-07-16T00:12:44;31.00;78.70
61386;DHT22;47256;18.904;-99.054;2023-07-16T00:15:11;31.00;79.10
61386;DHT22;47256;18.904;-99.054;2023-07-16T00:17:38;30.90;79.10
61386;DHT22;47256;18.904;-99.054;2023-07-16T00:20:06;30.90;79.90
61386;DHT22;47256;18.904;-99.054;2023-07-16T00:22:33;30.90;81.40
61386;DHT22;47256;18.904;-99.054;2023-07-16T00:25:01;30.80;79.90
61386;DHT22;47256;18.904;-99.054;2023-07-16T00:27:29;30.80;80.00
61386;DHT22;47256;18.904;-99.054;2023-07-16T00:29:56;30.70;81.70
61386;DHT22;47256;18.904;-99.054;2023-07-16T00:32:23;30.70;81.70
61386;DHT22;47256;18.904;-99.054;2023-07-16T00:34:51;30.60;80.40
61386;DHT22;47256;18.904;-99.054;2023-07-16T00:37:19;30.60;81.50
61386;DHT22;47256;18.904;-99.054;2023-07-16T00:39:46;30.60;82.70
61386;DHT22;47256;18.904;-99.054;2023-07-16T00:42:13;30.60;83.60
61386;DHT22;47256;18.904;-99.054;2023-07-16T00:44:40;30.50;82.40
61386;DHT22;47256;18.904;-99.054;2023-07-16T00:47:08;30.50;83.30
61386;DHT22;47256;18.904;-99.054;2023-07-16T00:49:37;30.50;83.30
61386;DHT22;47256;18.904;-99.054;2023-07-16T00:52:11;30.50;82.50
61386;DHT22;47256;18.904;-99.054;2023-07-16T00:54:39;30.50;83.10
61386;DHT22;47256;18.904;-99.054;2023-07-16T00:57:07;30.50;82.70
61386;DHT22;47256;18.904;-99.054;2023-07-16T00:59:35;30.50;83.50
61386;DHT22;47256;18.904;-99.054;2023-07-16T01:02:02;30.40;84.40
61386;DHT22;47256;18.904;-99.054;2023-07-16T01:04:29;30.50;82.80
61386;DHT22;47256;18.904;-99.054;2023-07-16T01:07:02;30.50;84.10
61386;DHT22;47256;18.904;-99.054;2023-07-16T01:09:31;30.40;84.10
61386;DHT22;47256;18.904;-99.054;2023-07-16T01:12:00;30.40;85.00
61386;DHT22;47256;18.904;-99.054;2023-07-16T01:14:29;30.40;83.50
61386;DHT22;47256;18.904;-99.054;2023-07-16T01:16:57;30.50;84.70
61386;DHT22;47256;18.904;-99.054;2023-07-16T01:19:26;30.40;85.30
61386;DHT22;47256;18.904;-99.054;2023-07-16T01:30:38;30.30;88.00
61386;DHT22;47256;18.904;-99.054;2023-07-16T01:33:07;30.30;87.60
61386;DHT22;47256;18.904;-99.054;2023-07-16T01:35:37;30.30;87.30
61386;DHT22;47256;18.904;-99.054;2023-07-16T01:38:06;30.30;87.70
61386;DHT22;47256;18.904;-99.054;2023-07-16T01:40:33;30.30;87.60
61386;DHT22;47256;18.904;-99.054;2023-07-16T01:43:01;30.30;89.10
61386;DHT22;47256;18.904;-99.054;2023-07-16T01:45:28;30.20;90.00
61386;DHT22;47256;18.904;-99.054;2023-07-16T01:50:47;30.10;92.50
61386;DHT22;47256;18.904;-99.054;2023-07-16T01:53:14;30.00;92.10
61386;DHT22;47256;18.904;-99.054;2023-07-16T01:55:42;29.90;92.40
61386;DHT22;47256;18.904;-99.054;2023-07-16T01:58:09;29.90;92.70
61386;DHT22;47256;18.904;-99.054;2023-07-16T02:00:37;29.80;93.00
61386;DHT22;47256;18.904;-99.054;2023-07-16T02:03:04;29.80;92.70
61386;DHT22;47256;18.904;-99.054;2023-07-16T02:05:32;29.80;92.90
61386;DHT22;47256;18.904;-99.054;2023-07-16T02:07:59;29.70;92.40
61386;DHT22;47256;18.904;-99.054;2023-07-16T02:10:26;29.60;92.90
61386;DHT22;47256;18.904;-99.054;2023-07-16T02:12:53;29.50;93.30
61386;DHT22;47256;18.904;-99.054;2023-07-16T02:15:20;29.50;93.20
61386;DHT22;47256;18.904;-99.054;2023-07-16T02:17:48;29.50;93.00
61386;DHT22;47256;18.904;-99.054;2023-07-16T02:20:17;29.40;93.90
61386;DHT22;47256;18.904;-99.054;2023-07-16T02:22:44;29.40;93.40
61386;DHT22;47256;18.904;-99.054;2023-07-16T02:25:12;29.40;92.90
61386;DHT22;47256;18.904;-99.054;2023-07-16T02:27:40;29.40;93.00
61386;DHT22;47256;18.904;-99.054;2023-07-16T02:30:07;29.30;92.30
61386;DHT22;47256;18.904;-99.054;2023-07-16T02:32:34;29.30;92.80
61386;DHT22;47256;18.904;-99.054;2023-07-16T02:35:02;29.20;92.50
61386;DHT22;47256;18.904;-99.054;2023-07-16T02:37:29;29.20;93.00
61386;DHT22;47256;18.904;-99.054;2023-07-16T02:39:57;29.20;93.10
61386;DHT22;47256;18.904;-99.054;2023-07-16T02:42:24;29.20;93.60
61386;DHT22;47256;18.904;-99.054;2023-07-16T02:44:51;29.10;94.00
61386;DHT22;47256;18.904;-99.054;2023-07-16T02:47:18;29.20;92.50
61386;DHT22;47256;18.904;-99.054;2023-07-16T02:49:50;29.20;92.40
61386;DHT22;47256;18.904;-99.054;2023-07-16T02:52:17;29.10;92.50
61386;DHT22;47256;18.904;-99.054;2023-07-16T02:54:44;29.10;92.80
61386;DHT22;47256;18.904;-99.054;2023-07-16T02:57:11;29.00;92.60
61386;DHT22;47256;18.904;-99.054;2023-07-16T02:59:38;29.00;92.50
61386;DHT22;47256;18.904;-99.054;2023-07-16T03:02:05;28.80;92.60
61386;DHT22;47256;18.904;-99.054;2023-07-16T03:04:33;28.80;92.60
61386;DHT22;47256;18.904;-99.054;2023-07-16T03:07:00;28.60;92.80
61386;DHT22;47256;18.904;-99.054;2023-07-16T03:09:27;28.70;92.60
61386;DHT22;47256;18.904;-99.054;2023-07-16T03:11:54;28.70;92.40
61386;DHT22;47256;18.904;-99.054;2023-07-16T03:14:22;28.60;92.50
61386;DHT22;47256;18.904;-99.054;2023-07-16T03:16:50;28.60;92.40
61386;DHT22;47256;18.904;-99.054;2023-07-16T03:19:17;28.60;92.90
61386;DHT22;47256;18.904;-99.054;2023-07-16T03:21:44;28.50;93.20
61386;DHT22;47256;18.904;-99.054;2023-07-16T03:24:12;28.50;93.20
61386;DHT22;47256;18.904;-99.054;2023-07-16T03:26:40;28.50;93.70
61386;DHT22;47256;18.904;-99.054;2023-07-16T03:29:07;28.40;94.70
61386;DHT22;47256;18.904;-99.054;2023-07-16T03:31:34;28.30;95.20
61386;DHT22;47256;18.904;-99.054;2023-07-16T03:34:02;28.20;95.30
61386;DHT22;47256;18.904;-99.054;2023-07-16T03:36:32;28.10;94.90
61386;DHT22;47256;18.904;-99.054;2023-07-16T03:39:00;28.00;95.00
61386;DHT22;47256;18.904;-99.054;2023-07-16T03:41:27;28.00;95.70
61386;DHT22;47256;18.904;-99.054;2023-07-16T03:43:54;27.80;96.30
61386;DHT22;47256;18.904;-99.054;2023-07-16T03:46:21;27.80;96.00
61386;DHT22;47256;18.904;-99.054;2023-07-16T03:48:50;27.80;96.10
61386;DHT22;47256;18.904;-99.054;2023-07-16T03:51:18;27.80;96.20
61386;DHT22;47256;18.904;-99.054;2023-07-16T03:53:46;27.90;95.60
61386;DHT22;47256;18.904;-99.054;2023-07-16T03:56:14;27.90;95.40
61386;DHT22;47256;18.904;-99.054;2023-07-16T03:58:41;27.80;95.10
61386;DHT22;47256;18.904;-99.054;2023-07-16T04:01:08;27.80;96.00
61386;DHT22;47256;18.904;-99.054;2023-07-16T04:03:36;27.80;95.80
61386;DHT22;47256;18.904;-99.054;2023-07-16T04:06:07;27.70;96.10
61386;DHT22;47256;18.904;-99.054;2023-07-16T04:08:36;27.60;96.30
61386;DHT22;47256;18.904;-99.054;2023-07-16T04:11:05;27.40;96.50
61386;DHT22;47256;18.904;-99.054;2023-07-16T04:13:33;27.40;96.10
61386;DHT22;47256;18.904;-99.054;2023-07-16T04:16:00;27.40;96.50
61386;DHT22;47256;18.904;-99.054;2023-07-16T04:18:27;27.30;96.10
61386;DHT22;47256;18.904;-99.054;2023-07-16T04:20:55;27.30;95.90
61386;DHT22;47256;18.904;-99.054;2023-07-16T04:23:22;27.30;95.80
61386;DHT22;47256;18.904;-99.054;2023-07-16T04:25:55;27.30;96.10
61386;DHT22;47256;18.904;-99.054;2023-07-16T04:28:22;27.30;96.20
61386;DHT22;47256;18.904;-99.054;2023-07-16T04:30:50;27.30;96.70
61386;DHT22;47256;18.904;-99.054;2023-07-16T04:33:17;27.10;96.80
61386;DHT22;47256;18.904;-99.054;2023-07-16T04:35:45;27.10;96.50
61386;DHT22;47256;18.904;-99.054;2023-07-16T04:38:12;27.10;96.70
61386;DHT22;47256;18.904;-99.054;2023-07-16T04:40:43;27.00;97.40
61386;DHT22;47256;18.904;-99.054;2023-07-16T04:43:10;27.00;97.10
61386;DHT22;47256;18.904;-99.054;2023-07-16T04:45:37;26.90;96.50
61386;DHT22;47256;18.904;-99.054;2023-07-16T04:48:06;27.00;96.90
61386;DHT22;47256;18.904;-99.054;2023-07-16T04:50:33;27.10;96.90
61386;DHT22;47256;18.904;-99.054;2023-07-16T04:53:00;27.00;97.40
61386;DHT22;47256;18.904;-99.054;2023-07-16T04:55:28;26.80;96.90
61386;DHT22;47256;18.904;-99.054;2023-07-16T04:57:55;26.70;97.00
61386;DHT22;47256;18.904;-99.054;2023-07-16T05:00:23;26.60;97.00
61386;DHT22;47256;18.904;-99.054;2023-07-16T05:02:50;26.50;97.00
61386;DHT22;47256;18.904;-99.054;2023-07-16T05:05:18;26.60;97.60
61386;DHT22;47256;18.904;-99.054;2023-07-16T05:07:46;26.60;98.10
61386;DHT22;47256;18.904;-99.054;2023-07-16T05:10:13;26.50;98.50
61386;DHT22;47256;18.904;-99.054;2023-07-16T05:12:40;26.50;97.90
61386;DHT22;47256;18.904;-99.054;2023-07-16T05:15:08;26.50;97.30
61386;DHT22;47256;18.904;-99.054;2023-07-16T05:17:35;26.40;97.20
61386;DHT22;47256;18.904;-99.054;2023-07-16T05:20:02;26.50;97.10
61386;DHT22;47256;18.904;-99.054;2023-07-16T05:22:30;26.50;97.50
61386;DHT22;47256;18.904;-99.054;2023-07-16T05:24:57;26.60;97.30
61386;DHT22;47256;18.904;-99.054;2023-07-16T05:27:25;26.50;97.60
61386;DHT22;47256;18.904;-99.054;2023-07-16T05:29:52;26.50;97.40
61386;DHT22;47256;18.904;-99.054;2023-07-16T05:32:19;26.50;97.40
61386;DHT22;47256;18.904;-99.054;2023-07-16T05:34:46;26.40;97.60
61386;DHT22;47256;18.904;-99.054;2023-07-16T05:37:14;26.20;98.10
61386;DHT22;47256;18.904;-99.054;2023-07-16T05:39:41;26.20;97.60
61386;DHT22;47256;18.904;-99.054;2023-07-16T05:42:08;26.20;98.20
61386;DHT22;47256;18.904;-99.054;2023-07-16T05:44:36;26.20;98.20
61386;DHT22;47256;18.904;-99.054;2023-07-16T05:47:03;26.20;98.30
61386;DHT22;47256;18.904;-99.054;2023-07-16T05:49:30;26.10;98.40
61386;DHT22;47256;18.904;-99.054;2023-07-16T05:51:58;26.00;98.30
61386;DHT22;47256;18.904;-99.054;2023-07-16T05:54:25;26.10;98.80
61386;DHT22;47256;18.904;-99.054;2023-07-16T05:56:52;26.10;98.20
61386;DHT22;47256;18.904;-99.054;2023-07-16T05:59:19;26.10;96.90
61386;DHT22;47256;18.904;-99.054;2023-07-16T06:01:47;26.10;97.10
61386;DHT22;47256;18.904;-99.054;2023-07-16T06:04:15;26.00;97.00
61386;DHT22;47256;18.904;-99.054;2023-07-16T06:06:42;25.90;96.50
61386;DHT22;47256;18.904;-99.054;2023-07-16T06:09:10;25.90;95.60
61386;DHT22;47256;18.904;-99.054;2023-07-16T06:11:37;26.00;95.60
61386;DHT22;47256;18.904;-99.054;2023-07-16T06:14:04;26.00;96.20
61386;DHT22;47256;18.904;-99.054;2023-07-16T06:16:32;26.00;95.70
61386;DHT22;47256;18.904;-99.054;2023-07-16T06:18:59;26.10;95.80
61386;DHT22;47256;18.904;-99.054;2023-07-16T06:21:26;26.10;95.60
61386;DHT22;47256;18.904;-99.054;2023-07-16T06:23:53;26.00;94.70
61386;DHT22;47256;18.904;-99.054;2023-07-16T06:26:20;26.00;95.10
61386;DHT22;47256;18.904;-99.054;2023-07-16T06:28:47;25.90;94.40
61386;DHT22;47256;18.904;-99.054;2023-07-16T06:31:17;25.90;94.90
61386;DHT22;47256;18.904;-99.054;2023-07-16T06:33:44;25.80;94.90
61386;DHT22;47256;18.904;-99.054;2023-07-16T06:36:14;25.70;94.80
61386;DHT22;47256;18.904;-99.054;2023-07-16T06:38:41;25.70;94.90
61386;DHT22;47256;18.904;-99.054;2023-07-16T06:41:09;25.70;94.60
61386;DHT22;47256;18.904;-99.054;2023-07-16T06:43:37;25.70;94.30
61386;DHT22;47256;18.904;-99.054;2023-07-16T06:46:05;25.80;94.10
61386;DHT22;47256;18.904;-99.054;2023-07-16T06:48:32;25.80;94.30
61386;DHT22;47256;18.904;-99.054;2023-07-16T06:50:59;25.80;94.20
61386;DHT22;47256;18.904;-99.054;2023-07-16T06:53:26;25.80;94.50
61386;DHT22;47256;18.904;-99.054;2023-07-16T06:55:53;25.80;93.80
61386;DHT22;47256;18.904;-99.054;2023-07-16T06:58:30;25.80;93.40
61386;DHT22;47256;18.904;-99.054;2023-07-16T07:00:59;25.80;93.30
61386;DHT22;47256;18.904;-99.054;2023-07-16T07:03:26;25.90;93.00
61386;DHT22;47256;18.904;-99.054;2023-07-16T07:05:53;25.90;92.40
61386;DHT22;47256;18.904;-99.054;2023-07-16T07:08:20;25.90;92.20
61386;DHT22;47256;18.904;-99.054;2023-07-16T07:10:49;25.80;92.40
61386;DHT22;47256;18.904;-99.054;2023-07-16T07:13:16;25.80;92.50
61386;DHT22;47256;18.904;-99.054;2023-07-16T07:15:44;25.80;93.00
61386;DHT22;47256;18.904;-99.054;2023-07-16T07:18:11;25.70;93.50
61386;DHT22;47256;18.904;-99.054;2023-07-16T07:20:39;25.70;93.20
61386;DHT22;47256;18.904;-99.054;2023-07-16T07:23:07;25.60;92.20
61386;DHT22;47256;18.904;-99.054;2023-07-16T07:25:34;25.40;91.90
61386;DHT22;47256;18.904;-99.054;2023-07-16T07:28:02;25.40;92.90
61386;DHT22;47256;18.904;-99.054;2023-07-16T07:30:29;25.40;93.00
61386;DHT22;47256;18.904;-99.054;2023-07-16T07:32:57;25.50;93.30
61386;DHT22;47256;18.904;-99.054;2023-07-16T07:35:24;25.40;93.10
61386;DHT22;47256;18.904;-99.054;2023-07-16T07:37:51;25.50;93.10
61386;DHT22;47256;18.904;-99.054;2023-07-16T07:40:19;25.50;92.80
61386;DHT22;47256;18.904;-99.054;2023-07-16T07:42:46;25.50;92.80
61386;DHT22;47256;18.904;-99.054;2023-07-16T07:45:13;25.50;92.50
61386;DHT22;47256;18.904;-99.054;2023-07-16T07:47:41;25.50;92.90
61386;DHT22;47256;18.904;-99.054;2023-07-16T07:50:08;25.50;94.30
61386;DHT22;47256;18.904;-99.054;2023-07-16T07:52:36;25.30;94.60
61386;DHT22;47256;18.904;-99.054;2023-07-16T07:55:03;25.30;94.50
61386;DHT22;47256;18.904;-99.054;2023-07-16T07:57:30;25.20;94.40
61386;DHT22;47256;18.904;-99.054;2023-07-16T07:59:58;25.20;94.00
61386;DHT22;47256;18.904;-99.054;2023-07-16T08:02:26;25.10;94.50
61386;DHT22;47256;18.904;-99.054;2023-07-16T08:04:54;25.10;94.60
61386;DHT22;47256;18.904;-99.054;2023-07-16T08:07:22;25.20;94.70
61386;DHT22;47256;18.904;-99.054;2023-07-16T08:09:49;25.10;94.40
61386;DHT22;47256;18.904;-99.054;2023-07-16T08:12:16;25.10;94.60
61386;DHT22;47256;18.904;-99.054;2023-07-16T08:14:43;25.20;94.00
61386;DHT22;47256;18.904;-99.054;2023-07-16T08:17:10;25.10;93.60
61386;DHT22;47256;18.904;-99.054;2023-07-16T08:19:38;25.00;93.80
61386;DHT22;47256;18.904;-99.054;2023-07-16T08:22:06;25.00;94.30
61386;DHT22;47256;18.904;-99.054;2023-07-16T08:24:33;24.90;94.20
61386;DHT22;47256;18.904;-99.054;2023-07-16T08:27:00;24.90;94.30
61386;DHT22;47256;18.904;-99.054;2023-07-16T08:29:27;24.80;95.50
61386;DHT22;47256;18.904;-99.054;2023-07-16T08:31:55;24.70;95.60
61386;DHT22;47256;18.904;-99.054;2023-07-16T08:34:22;24.60;96.00
61386;DHT22;47256;18.904;-99.054;2023-07-16T08:36:49;24.60;95.90
61386;DHT22;47256;18.904;-99.054;2023-07-16T08:39:16;24.60;95.90
61386;DHT22;47256;18.904;-99.054;2023-07-16T08:41:46;24.70;95.50
61386;DHT22;47256;18.904;-99.054;2023-07-16T08:44:13;24.70;96.00
61386;DHT22;47256;18.904;-99.054;2023-07-16T08:46:40;24.60;95.70
61386;DHT22;47256;18.904;-99.054;2023-07-16T08:49:08;24.50;95.60
61386;DHT22;47256;18.904;-99.054;2023-07-16T08:51:36;24.50;95.50
61386;DHT22;47256;18.904;-99.054;2023-07-16T08:54:05;24.60;94.90
61386;DHT22;47256;18.904;-99.054;2023-07-16T08:56:32;24.70;95.30
61386;DHT22;47256;18.904;-99.054;2023-07-16T08:58:59;24.70;95.50
61386;DHT22;47256;18.904;-99.054;2023-07-16T09:01:28;24.70;95.40
61386;DHT22;47256;18.904;-99.054;2023-07-16T09:03:55;24.70;95.40
61386;DHT22;47256;18.904;-99.054;2023-07-16T09:06:22;24.80;95.10
61386;DHT22;47256;18.904;-99.054;2023-07-16T09:08:49;24.60;95.20
61386;DHT22;47256;18.904;-99.054;2023-07-16T09:11:17;24.50;95.10
61386;DHT22;47256;18.904;-99.054;2023-07-16T09:13:49;24.40;94.90
61386;DHT22;47256;18.904;-99.054;2023-07-16T09:16:18;24.40;95.10
61386;DHT22;47256;18.904;-99.054;2023-07-16T09:18:46;24.40;95.30
61386;DHT22;47256;18.904;-99.054;2023-07-16T09:21:13;24.40;95.40
61386;DHT22;47256;18.904;-99.054;2023-07-16T09:23:41;24.40;96.00
61386;DHT22;47256;18.904;-99.054;2023-07-16T09:26:09;24.30;97.50
61386;DHT22;47256;18.904;-99.054;2023-07-16T09:28:36;24.30;96.90
61386;DHT22;47256;18.904;-99.054;2023-07-16T09:31:08;24.20;96.80
61386;DHT22;47256;18.904;-99.054;2023-07-16T09:33:35;24.10;96.20
61386;DHT22;47256;18.904;-99.054;2023-07-16T09:36:03;24.10;96.20
61386;DHT22;47256;18.904;-99.054;2023-07-16T09:38:32;24.20;96.30
61386;DHT22;47256;18.904;-99.054;2023-07-16T09:41:00;24.30;96.20
61386;DHT22;47256;18.904;-99.054;2023-07-16T09:43:29;24.30;96.30
61386;DHT22;47256;18.904;-99.054;2023-07-16T09:45:56;24.30;96.10
61386;DHT22;47256;18.904;-99.054;2023-07-16T09:48:24;24.30;96.40
61386;DHT22;47256;18.904;-99.054;2023-07-16T09:50:52;24.20;96.50
61386;DHT22;47256;18.904;-99.054;2023-07-16T09:53:21;24.00;96.70
61386;DHT22;47256;18.904;-99.054;2023-07-16T09:55:49;23.80;96.90
61386;DHT22;47256;18.904;-99.054;2023-07-16T09:58:18;23.90;97.30
61386;DHT22;47256;18.904;-99.054;2023-07-16T10:00:47;23.90;97.50
61386;DHT22;47256;18.904;-99.054;2023-07-16T10:03:15;23.80;97.60
61386;DHT22;47256;18.904;-99.054;2023-07-16T10:05:45;23.40;97.80
61386;DHT22;47256;18.904;-99.054;2023-07-16T10:08:20;23.40;98.00
61386;DHT22;47256;18.904;-99.054;2023-07-16T10:10:48;23.50;97.90
61386;DHT22;47256;18.904;-99.054;2023-07-16T10:13:16;23.50;97.40
61386;DHT22;47256;18.904;-99.054;2023-07-16T10:15:56;23.50;97.60
61386;DHT22;47256;18.904;-99.054;2023-07-16T10:18:29;23.50;97.80
61386;DHT22;47256;18.904;-99.054;2023-07-16T10:21:07;23.60;98.30
61386;DHT22;47256;18.904;-99.054;2023-07-16T10:23:44;23.70;97.80
61386;DHT22;47256;18.904;-99.054;2023-07-16T10:26:14;23.70;97.50
61386;DHT22;47256;18.904;-99.054;2023-07-16T10:28:41;23.70;97.50
61386;DHT22;47256;18.904;-99.054;2023-07-16T10:31:21;23.60;98.00
61386;DHT22;47256;18.904;-99.054;2023-07-16T10:34:00;23.50;98.30
61386;DHT22;47256;18.904;-99.054;2023-07-16T10:36:28;23.40;97.90
61386;DHT22;47256;18.904;-99.054;2023-07-16T10:39:01;23.40;98.40
61386;DHT22;47256;18.904;-99.054;2023-07-16T10:41:30;23.40;98.20
61386;DHT22;47256;18.904;-99.054;2023-07-16T10:43:59;23.40;98.20
61386;DHT22;47256;18.904;-99.054;2023-07-16T10:46:27;23.30;98.50
61386;DHT22;47256;18.904;-99.054;2023-07-16T10:48:54;23.40;98.10
61386;DHT22;47256;18.904;-99.054;2023-07-16T10:51:25;23.50;98.20
61386;DHT22;47256;18.904;-99.054;2023-07-16T10:53:55;23.50;98.40
61386;DHT22;47256;18.904;-99.054;2023-07-16T10:56:24;23.40;98.20
61386;DHT22;47256;18.904;-99.054;2023-07-16T10:58:51;23.30;98.80
61386;DHT22;47256;18.904;-99.054;2023-07-16T11:01:19;23.30;98.60
61386;DHT22;47256;18.904;-99.054;2023-07-16T11:03:46;23.30;98.70
61386;DHT22;47256;18.904;-99.054;2023-07-16T11:06:14;23.40;98.70
61386;DHT22;47256;18.904;-99.054;2023-07-16T11:08:43;23.40;99.00
61386;DHT22;47256;18.904;-99.054;2023-07-16T11:11:10;23.30;99.00
61386;DHT22;47256;18.904;-99.054;2023-07-16T11:13:37;23.20;99.40
61386;DHT22;47256;18.904;-99.054;2023-07-16T11:16:08;23.20;98.90
61386;DHT22;47256;18.904;-99.054;2023-07-16T11:18:36;23.20;98.80
61386;DHT22;47256;18.904;-99.054;2023-07-16T11:21:04;23.20;99.30
61386;DHT22;47256;18.904;-99.054;2023-07-16T11:23:35;23.10;99.60
61386;DHT22;47256;18.904;-99.054;2023-07-16T11:26:03;23.20;99.10
61386;DHT22;47256;18.904;-99.054;2023-07-16T11:28:41;23.20;99.10
61386;DHT22;47256;18.904;-99.054;2023-07-16T11:31:15;23.20;98.60
61386;DHT22;47256;18.904;-99.054;2023-07-16T11:33:46;23.10;99.30
61386;DHT22;47256;18.904;-99.054;2023-07-16T11:36:16;23.10;99.30
61386;DHT22;47256;18.904;-99.054;2023-07-16T11:38:43;23.10;99.20
61386;DHT22;47256;18.904;-99.054;2023-07-16T11:41:10;23.10;99.10
61386;DHT22;47256;18.904;-99.054;2023-07-16T11:43:39;23.10;99.00
61386;DHT22;47256;18.904;-99.054;2023-07-16T11:46:15;23.20;98.80
61386;DHT22;47256;18.904;-99.054;2023-07-16T11:48:43;23.00;99.60
61386;DHT22;47256;18.904;-99.054;2023-07-16T11:51:10;22.90;99.80
61386;DHT22;47256;18.904;-99.054;2023-07-16T11:53:38;22.90;99.80
61386;DHT22;47256;18.904;-99.054;2023-07-16T11:56:05;22.80;99.90
61386;DHT22;47256;18.904;-99.054;2023-07-16T11:58:32;22.60;99.90
61386;DHT22;47256;18.904;-99.054;2023-07-16T12:00:59;22.50;99.90
61386;DHT22;47256;18.904;-99.054;2023-07-16T12:03:26;22.50;99.90
61386;DHT22;47256;18.904;-99.054;2023-07-16T12:05:53;22.30;99.90
61386;DHT22;47256;18.904;-99.054;2023-07-16T12:08:21;22.30;99.90
61386;DHT22;47256;18.904;-99.054;2023-07-16T12:10:49;22.30;99.90
61386;DHT22;47256;18.904;-99.054;2023-07-16T12:13:16;22.40;99.90
61386;DHT22;47256;18.904;-99.054;2023-07-16T12:15:44;22.40;99.80
61386;DHT22;47256;18.904;-99.054;2023-07-16T12:18:11;22.40;99.90
61386;DHT22;47256;18.904;-99.054;2023-07-16T12:20:38;22.50;99.90
61386;DHT22;47256;18.904;-99.054;2023-07-16T12:23:06;22.50;99.80
61386;DHT22;47256;18.904;-99.054;2023-07-16T12:25:33;22.40;99.90
61386;DHT22;47256;18.904;-99.054;2023-07-16T12:28:01;22.40;99.90
61386;DHT22;47256;18.904;-99.054;2023-07-16T12:30:29;22.50;99.90
61386;DHT22;47256;18.904;-99.054;2023-07-16T12:32:56;22.50;99.90
61386;DHT22;47256;18.904;-99.054;2023-07-16T12:35:23;22.50;99.90
61386;DHT22;47256;18.904;-99.054;2023-07-16T12:37:50;22.50;99.90
61386;DHT22;47256;18.904;-99.054;2023-07-16T12:40:18;22.60;99.90
61386;DHT22;47256;18.904;-99.054;2023-07-16T12:42:45;22.60;99.90
61386;DHT22;47256;18.904;-99.054;2023-07-16T12:45:12;22.70;99.90
61386;DHT22;47256;18.904;-99.054;2023-07-16T12:47:39;22.60;99.90
61386;DHT22;47256;18.904;-99.054;2023-07-16T12:50:07;22.50;99.90
61386;DHT22;47256;18.904;-99.054;2023-07-16T12:52:34;22.40;99.90
61386;DHT22;47256;18.904;-99.054;2023-07-16T12:55:01;22.30;99.90
61386;DHT22;47256;18.904;-99.054;2023-07-16T12:57:29;22.30;99.90
61386;DHT22;47256;18.904;-99.054;2023-07-16T12:59:58;22.40;99.90
61386;DHT22;47256;18.904;-99.054;2023-07-16T13:02:25;22.40;99.90
61386;DHT22;47256;18.904;-99.054;2023-07-16T13:04:53;22.40;99.90
61386;DHT22;47256;18.904;-99.054;2023-07-16T13:07:20;22.40;99.90
61386;DHT22;47256;18.904;-99.054;2023-07-16T13:09:47;22.40;99.90
61386;DHT22;47256;18.904;-99.054;2023-07-16T13:12:15;22.40;99.90
61386;DHT22;47256;18.904;-99.054;2023-07-16T13:14:42;22.40;99.90
61386;DHT22;47256;18.904;-99.054;2023-07-16T13:17:09;22.50;99.90
61386;DHT22;47256;18.904;-99.054;2023-07-16T13:19:36;22.50;99.90
61386;DHT22;47256;18.904;-99.054;2023-07-16T13:22:03;22.60;99.90
61386;DHT22;47256;18.904;-99.054;2023-07-16T13:24:30;22.40;99.90
61386;DHT22;47256;18.904;-99.054;2023-07-16T13:26:57;22.30;99.90
61386;DHT22;47256;18.904;-99.054;2023-07-16T13:29:24;22.20;99.90
61386;DHT22;47256;18.904;-99.054;2023-07-16T13:31:51;22.30;99.90
61386;DHT22;47256;18.904;-99.054;2023-07-16T13:34:18;22.40;99.90
61386;DHT22;47256;18.904;-99.054;2023-07-16T13:36:45;22.60;99.90
61386;DHT22;47256;18.904;-99.054;2023-07-16T13:39:12;22.60;99.90
61386;DHT22;47256;18.904;-99.054;2023-07-16T13:41:40;22.70;99.90
61386;DHT22;47256;18.904;-99.054;2023-07-16T13:44:07;22.90;99.90
61386;DHT22;47256;18.904;-99.054;2023-07-16T13:46:34;22.90;99.90
61386;DHT22;47256;18.904;-99.054;2023-07-16T13:49:01;23.00;99.90
61386;DHT22;47256;18.904;-99.054;2023-07-16T13:51:28;23.10;99.90
61386;DHT22;47256;18.904;-99.054;2023-07-16T13:53:55;23.20;99.90
61386;DHT22;47256;18.904;-99.054;2023-07-16T13:56:22;23.40;99.90
61386;DHT22;47256;18.904;-99.054;2023-07-16T13:58:49;23.50;99.90
61386;DHT22;47256;18.904;-99.054;2023-07-16T14:01:18;23.60;99.90
61386;DHT22;47256;18.904;-99.054;2023-07-16T14:03:45;23.70;99.90
61386;DHT22;47256;18.904;-99.054;2023-07-16T14:06:12;23.80;99.90
61386;DHT22;47256;18.904;-99.054;2023-07-16T14:08:39;23.90;99.90
61386;DHT22;47256;18.904;-99.054;2023-07-16T14:11:06;23.90;99.60
61386;DHT22;47256;18.904;-99.054;2023-07-16T14:13:33;24.00;99.40
61386;DHT22;47256;18.904;-99.054;2023-07-16T14:16:00;24.10;99.00
61386;DHT22;47256;18.904;-99.054;2023-07-16T14:18:30;24.20;99.10
61386;DHT22;47256;18.904;-99.054;2023-07-16T14:20:57;24.30;98.20
61386;DHT22;47256;18.904;-99.054;2023-07-16T14:23:24;24.40;98.60
61386;DHT22;47256;18.904;-99.054;2023-07-16T14:25:51;24.50;98.20
61386;DHT22;47256;18.904;-99.054;2023-07-16T14:28:18;24.60;97.50
61386;DHT22;47256;18.904;-99.054;2023-07-16T14:30:45;24.60;97.70
61386;DHT22;47256;18.904;-99.054;2023-07-16T14:33:12;24.70;97.30
61386;DHT22;47256;18.904;-99.054;2023-07-16T14:35:39;24.80;97.00
61386;DHT22;47256;18.904;-99.054;2023-07-16T14:38:06;24.80;96.50
61386;DHT22;47256;18.904;-99.054;2023-07-16T14:40:33;24.80;97.70
61386;DHT22;47256;18.904;-99.054;2023-07-16T14:43:00;24.90;98.30
61386;DHT22;47256;18.904;-99.054;2023-07-16T14:45:27;25.00;97.40
61386;DHT22;47256;18.904;-99.054;2023-07-16T14:47:55;25.00;97.30
61386;DHT22;47256;18.904;-99.054;2023-07-16T14:50:22;25.10;98.00
61386;DHT22;47256;18.904;-99.054;2023-07-16T14:52:51;25.20;97.00
61386;DHT22;47256;18.904;-99.054;2023-07-16T14:55:18;25.30;97.20
61386;DHT22;47256;18.904;-99.054;2023-07-16T14:57:45;25.30;97.20
61386;DHT22;47256;18.904;-99.054;2023-07-16T15:00:12;25.40;95.80
61386;DHT22;47256;18.904;-99.054;2023-07-16T15:02:40;25.40;94.70
61386;DHT22;47256;18.904;-99.054;2023-07-16T15:05:09;25.50;93.80
61386;DHT22;47256;18.904;-99.054;2023-07-16T15:07:36;25.50;93.70
61386;DHT22;47256;18.904;-99.054;2023-07-16T15:10:04;25.60;94.80
61386;DHT22;47256;18.904;-99.054;2023-07-16T15:12:32;25.70;94.30
61386;DHT22;47256;18.904;-99.054;2023-07-16T15:14:59;25.80;95.50
61386;DHT22;47256;18.904;-99.054;2023-07-16T15:17:26;25.80;95.90